sensor_id;sensor_type;location;lat;lon;timestamp;temperature;humidity
22383;DHT22;11359;45.802;13.530;2022-07-12T00:01:50;26.10;40.00
22383;DHT22;11359;45.802;13.530;2022-07-12T00:04:16;26.10;40.00
22383;DHT22;11359;45.802;13.530;2022-07-12T00:06:41;26.10;39.90
22383;DHT22;11359;45.802;13.530;2022-07-12T00:09:08;26.10;39.90
22383;DHT22;11359;45.802;13.530;2022-07-12T00:11:35;26.10;39.80
22383;DHT22;11359;45.802;13.530;2022-07-12T00:14:01;26.10;39.80
22383;DHT22;11359;45.802;13.530;2022-07-12T00:16:26;26.10;40.50
22383;DHT22;11359;45.802;13.530;2022-07-12T00:18:52;26.10;39.80
22383;DHT22;11359;45.802;13.530;2022-07-12T00:21:19;26.00;39.80
22383;DHT22;11359;45.802;13.530;2022-07-12T00:23:45;26.10;39.80
22383;DHT22;11359;45.802;13.530;2022-07-12T00:26:11;26.10;39.80
22383;DHT22;11359;45.802;13.530;2022-07-12T00:28:36;26.10;39.70
22383;DHT22;11359;45.802;13.530;2022-07-12T00:31:02;26.10;39.70
22383;DHT22;11359;45.802;13.530;2022-07-12T00:33:29;26.10;39.60
22383;DHT22;11359;45.802;13.530;2022-07-12T00:35:55;26.00;39.50
22383;DHT22;11359;45.802;13.530;2022-07-12T00:38:21;26.00;39.40
22383;DHT22;11359;45.802;13.530;2022-07-12T00:40:47;25.90;39.30
22383;DHT22;11359;45.802;13.530;2022-07-12T00:43:12;25.90;39.20
22383;DHT22;11359;45.802;13.530;2022-07-12T00:45:41;25.90;39.20
22383;DHT22;11359;45.802;13.530;2022-07-12T00:48:07;25.90;39.10
22383;DHT22;11359;45.802;13.530;2022-07-12T00:50:33;25.80;39.10
22383;DHT22;11359;45.802;13.530;2022-07-12T00:52:59;25.80;39.10
22383;DHT22;11359;45.802;13.530;2022-07-12T00:55:25;25.70;39.10
22383;DHT22;11359;45.802;13.530;2022-07-12T00:57:51;25.70;39.20
22383;DHT22;11359;45.802;13.530;2022-07-12T01:00:23;25.70;39.30
22383;DHT22;11359;45.802;13.530;2022-07-12T01:02:51;25.70;39.20
22383;DHT22;11359;45.802;13.530;2022-07-12T01:05:17;25.60;39.80
22383;DHT22;11359;45.802;13.530;2022-07-12T01:07:44;25.60;39.10
22383;DHT22;11359;45.802;13.530;2022-07-12T01:10:11;25.60;39.20
22383;DHT22;11359;45.802;13.530;2022-07-12T01:12:37;25.60;39.30
22383;DHT22;11359;45.802;13.530;2022-07-12T01:15:05;25.50;39.20
22383;DHT22;11359;45.802;13.530;2022-07-12T01:17:31;25.50;39.20
22383;DHT22;11359;45.802;13.530;2022-07-12T01:19:58;25.50;39.20
22383;DHT22;11359;45.802;13.530;2022-07-12T01:22:30;25.50;39.20
22383;DHT22;11359;45.802;13.530;2022-07-12T01:24:57;25.50;39.20
22383;DHT22;11359;45.802;13.530;2022-07-12T01:27:23;25.40;39.20
22383;DHT22;11359;45.802;13.530;2022-07-12T01:29:49;25.40;39.20
22383;DHT22;11359;45.802;13.530;2022-07-12T01:32:14;25.40;39.20
22383;DHT22;11359;45.802;13.530;2022-07-12T01:34:55;25.40;39.30
22383;DHT22;11359;45.802;13.530;2022-07-12T01:37:22;25.30;39.20
22383;DHT22;11359;45.802;13.530;2022-07-12T01:39:53;25.30;39.30
22383;DHT22;11359;45.802;13.530;2022-07-12T01:42:24;25.30;39.30
22383;DHT22;11359;45.802;13.530;2022-07-12T01:44:51;25.20;39.30
22383;DHT22;11359;45.802;13.530;2022-07-12T01:47:22;25.20;39.30
22383;DHT22;11359;45.802;13.530;2022-07-12T01:49:48;25.20;39.30
22383;DHT22;11359;45.802;13.530;2022-07-12T01:52:14;25.20;39.30
22383;DHT22;11359;45.802;13.530;2022-07-12T01:54:41;25.20;39.30
22383;DHT22;11359;45.802;13.530;2022-07-12T01:57:07;25.10;39.20
22383;DHT22;11359;45.802;13.530;2022-07-12T01:59:33;25.10;39.20
22383;DHT22;11359;45.802;13.530;2022-07-12T02:01:59;25.10;39.40
22383;DHT22;11359;45.802;13.530;2022-07-12T02:04:26;25.10;39.40
22383;DHT22;11359;45.802;13.530;2022-07-12T02:06:51;25.10;39.40
22383;DHT22;11359;45.802;13.530;2022-07-12T02:09:18;25.00;39.40
22383;DHT22;11359;45.802;13.530;2022-07-12T02:11:44;25.00;39.40
22383;DHT22;11359;45.802;13.530;2022-07-12T02:14:11;25.00;39.40
22383;DHT22;11359;45.802;13.530;2022-07-12T02:16:40;25.00;39.40
22383;DHT22;11359;45.802;13.530;2022-07-12T02:19:06;25.00;39.30
22383;DHT22;11359;45.802;13.530;2022-07-12T02:21:32;24.90;39.20
22383;DHT22;11359;45.802;13.530;2022-07-12T02:23:59;24.90;39.30
22383;DHT22;11359;45.802;13.530;2022-07-12T02:26:25;24.90;39.20
22383;DHT22;11359;45.802;13.530;2022-07-12T02:28:51;24.90;39.20
22383;DHT22;11359;45.802;13.530;2022-07-12T02:31:16;24.90;39.20
22383;DHT22;11359;45.802;13.530;2022-07-12T02:33:42;24.80;39.30
22383;DHT22;11359;45.802;13.530;2022-07-12T02:36:08;24.80;39.40
22383;DHT22;11359;45.802;13.530;2022-07-12T02:38:35;24.70;39.30
22383;DHT22;11359;45.802;13.530;2022-07-12T02:41:00;24.70;39.40
22383;DHT22;11359;45.802;13.530;2022-07-12T02:43:30;24.70;39.40
22383;DHT22;11359;45.802;13.530;2022-07-12T02:46:05;24.60;39.40
22383;DHT22;11359;45.802;13.530;2022-07-12T02:48:31;24.60;39.50
22383;DHT22;11359;45.802;13.530;2022-07-12T02:50:59;24.60;39.50
22383;DHT22;11359;45.802;13.530;2022-07-12T02:53:25;24.50;39.50
22383;DHT22;11359;45.802;13.530;2022-07-12T02:55:51;24.50;39.60
22383;DHT22;11359;45.802;13.530;2022-07-12T02:58:17;24.50;39.60
22383;DHT22;11359;45.802;13.530;2022-07-12T03:00:42;24.40;39.60
22383;DHT22;11359;45.802;13.530;2022-07-12T03:03:10;24.40;39.60
22383;DHT22;11359;45.802;13.530;2022-07-12T03:05:36;24.30;39.60
22383;DHT22;11359;45.802;13.530;2022-07-12T03:08:06;24.30;39.70
22383;DHT22;11359;45.802;13.530;2022-07-12T03:10:32;24.30;39.70
22383;DHT22;11359;45.802;13.530;2022-07-12T03:12:58;24.30;39.80
22383;DHT22;11359;45.802;13.530;2022-07-12T03:15:24;24.20;39.80
22383;DHT22;11359;45.802;13.530;2022-07-12T03:17:49;24.20;39.80
22383;DHT22;11359;45.802;13.530;2022-07-12T03:20:15;24.20;39.80
22383;DHT22;11359;45.802;13.530;2022-07-12T03:22:42;24.10;39.90
22383;DHT22;11359;45.802;13.530;2022-07-12T03:25:09;24.10;39.90
22383;DHT22;11359;45.802;13.530;2022-07-12T03:27:35;24.10;39.90
22383;DHT22;11359;45.802;13.530;2022-07-12T03:30:01;24.10;40.00
22383;DHT22;11359;45.802;13.530;2022-07-12T03:32:27;24.10;40.10
22383;DHT22;11359;45.802;13.530;2022-07-12T03:34:53;24.00;40.10
22383;DHT22;11359;45.802;13.530;2022-07-12T03:37:18;24.00;40.10
22383;DHT22;11359;45.802;13.530;2022-07-12T03:39:44;24.00;40.20
22383;DHT22;11359;45.802;13.530;2022-07-12T03:42:10;24.00;40.20
22383;DHT22;11359;45.802;13.530;2022-07-12T03:44:38;23.90;40.20
22383;DHT22;11359;45.802;13.530;2022-07-12T03:47:04;24.00;40.90
22383;DHT22;11359;45.802;13.530;2022-07-12T03:49:30;24.00;40.30
22383;DHT22;11359;45.802;13.530;2022-07-12T03:51:56;24.00;40.30
22383;DHT22;11359;45.802;13.530;2022-07-12T03:54:22;24.00;40.40
22383;DHT22;11359;45.802;13.530;2022-07-12T03:56:47;24.00;40.40
22383;DHT22;11359;45.802;13.530;2022-07-12T03:59:32;24.00;40.50
22383;DHT22;11359;45.802;13.530;2022-07-12T04:01:57;24.00;40.50
22383;DHT22;11359;45.802;13.530;2022-07-12T04:04:23;24.00;40.50
22383;DHT22;11359;45.802;13.530;2022-07-12T04:06:49;24.00;40.50
22383;DHT22;11359;45.802;13.530;2022-07-12T04:09:15;24.00;40.50
22383;DHT22;11359;45.802;13.530;2022-07-12T04:11:40;24.00;40.50
22383;DHT22;11359;45.802;13.530;2022-07-12T04:14:06;24.00;40.50
22383;DHT22;11359;45.802;13.530;2022-07-12T04:16:32;24.00;40.40
22383;DHT22;11359;45.802;13.530;2022-07-12T04:18:58;24.00;40.50
22383;DHT22;11359;45.802;13.530;2022-07-12T04:21:24;24.00;40.50
22383;DHT22;11359;45.802;13.530;2022-07-12T04:23:49;24.00;40.50
22383;DHT22;11359;45.802;13.530;2022-07-12T04:26:15;24.00;40.60
22383;DHT22;11359;45.802;13.530;2022-07-12T04:28:41;24.00;40.60
22383;DHT22;11359;45.802;13.530;2022-07-12T04:31:06;24.00;40.60
22383;DHT22;11359;45.802;13.530;2022-07-12T04:33:33;24.10;40.70
22383;DHT22;11359;45.802;13.530;2022-07-12T04:35:59;24.10;40.70
22383;DHT22;11359;45.802;13.530;2022-07-12T04:38:25;24.10;40.70
22383;DHT22;11359;45.802;13.530;2022-07-12T04:40:51;24.10;40.60
22383;DHT22;11359;45.802;13.530;2022-07-12T04:43:17;24.10;40.60
22383;DHT22;11359;45.802;13.530;2022-07-12T04:45:43;24.10;40.60
22383;DHT22;11359;45.802;13.530;2022-07-12T04:48:12;24.00;40.50
22383;DHT22;11359;45.802;13.530;2022-07-12T04:50:38;24.10;40.50
22383;DHT22;11359;45.802;13.530;2022-07-12T04:53:04;24.00;40.50
22383;DHT22;11359;45.802;13.530;2022-07-12T04:55:30;24.00;40.60
22383;DHT22;11359;45.802;13.530;2022-07-12T04:57:56;24.00;40.60
22383;DHT22;11359;45.802;13.530;2022-07-12T05:00:22;24.00;40.60
22383;DHT22;11359;45.802;13.530;2022-07-12T05:02:48;24.00;40.90
22383;DHT22;11359;45.802;13.530;2022-07-12T05:05:14;23.90;40.70
22383;DHT22;11359;45.802;13.530;2022-07-12T05:07:41;23.90;40.70
22383;DHT22;11359;45.802;13.530;2022-07-12T05:10:07;23.90;40.80
22383;DHT22;11359;45.802;13.530;2022-07-12T05:12:36;23.90;40.80
22383;DHT22;11359;45.802;13.530;2022-07-12T05:15:04;23.90;40.90
22383;DHT22;11359;45.802;13.530;2022-07-12T05:17:30;23.90;40.90
22383;DHT22;11359;45.802;13.530;2022-07-12T05:19:56;23.90;41.00
22383;DHT22;11359;45.802;13.530;2022-07-12T05:22:22;23.90;41.00
22383;DHT22;11359;45.802;13.530;2022-07-12T05:24:47;23.90;41.10
22383;DHT22;11359;45.802;13.530;2022-07-12T05:27:14;23.90;41.10
22383;DHT22;11359;45.802;13.530;2022-07-12T05:29:42;23.90;41.10
22383;DHT22;11359;45.802;13.530;2022-07-12T05:32:08;23.90;41.10
22383;DHT22;11359;45.802;13.530;2022-07-12T05:34:34;23.90;41.10
22383;DHT22;11359;45.802;13.530;2022-07-12T05:37:00;24.00;41.20
22383;DHT22;11359;45.802;13.530;2022-07-12T05:39:25;24.00;41.30
22383;DHT22;11359;45.802;13.530;2022-07-12T05:41:51;24.00;41.30
22383;DHT22;11359;45.802;13.530;2022-07-12T05:44:17;24.10;41.40
22383;DHT22;11359;45.802;13.530;2022-07-12T05:46:45;24.10;41.30
22383;DHT22;11359;45.802;13.530;2022-07-12T05:49:10;24.10;41.40
22383;DHT22;11359;45.802;13.530;2022-07-12T05:51:36;24.10;41.40
22383;DHT22;11359;45.802;13.530;2022-07-12T05:54:20;24.10;41.40
22383;DHT22;11359;45.802;13.530;2022-07-12T05:56:46;24.20;41.50
22383;DHT22;11359;45.802;13.530;2022-07-12T05:59:12;24.20;41.50
22383;DHT22;11359;45.802;13.530;2022-07-12T06:01:38;24.20;41.50
22383;DHT22;11359;45.802;13.530;2022-07-12T06:04:03;24.30;41.60
22383;DHT22;11359;45.802;13.530;2022-07-12T06:06:29;24.30;41.60
22383;DHT22;11359;45.802;13.530;2022-07-12T06:08:55;24.30;41.60
22383;DHT22;11359;45.802;13.530;2022-07-12T06:11:21;24.40;41.70
22383;DHT22;11359;45.802;13.530;2022-07-12T06:13:46;24.50;41.70
22383;DHT22;11359;45.802;13.530;2022-07-12T06:16:12;24.50;41.70
22383;DHT22;11359;45.802;13.530;2022-07-12T06:18:38;24.60;41.70
22383;DHT22;11359;45.802;13.530;2022-07-12T06:21:04;24.60;41.70
22383;DHT22;11359;45.802;13.530;2022-07-12T06:23:30;24.60;41.60
22383;DHT22;11359;45.802;13.530;2022-07-12T06:25:56;24.70;41.70
22383;DHT22;11359;45.802;13.530;2022-07-12T06:28:22;24.70;41.60
22383;DHT22;11359;45.802;13.530;2022-07-12T06:30:47;24.70;41.50
22383;DHT22;11359;45.802;13.530;2022-07-12T06:33:13;24.80;41.50
22383;DHT22;11359;45.802;13.530;2022-07-12T06:35:39;24.80;41.40
22383;DHT22;11359;45.802;13.530;2022-07-12T06:38:05;24.80;41.40
22383;DHT22;11359;45.802;13.530;2022-07-12T06:40:30;24.90;41.30
22383;DHT22;11359;45.802;13.530;2022-07-12T06:42:56;24.90;41.30
22383;DHT22;11359;45.802;13.530;2022-07-12T06:45:22;24.90;41.20
22383;DHT22;11359;45.802;13.530;2022-07-12T06:47:48;24.90;41.20
22383;DHT22;11359;45.802;13.530;2022-07-12T06:50:14;25.00;41.30
22383;DHT22;11359;45.802;13.530;2022-07-12T06:52:40;25.00;41.20
22383;DHT22;11359;45.802;13.530;2022-07-12T06:55:07;25.00;41.20
22383;DHT22;11359;45.802;13.530;2022-07-12T06:57:34;25.10;41.30
22383;DHT22;11359;45.802;13.530;2022-07-12T07:00:01;25.10;41.20
22383;DHT22;11359;45.802;13.530;2022-07-12T07:02:29;25.20;41.10
22383;DHT22;11359;45.802;13.530;2022-07-12T07:04:55;25.20;41.10
22383;DHT22;11359;45.802;13.530;2022-07-12T07:07:21;25.30;41.10
22383;DHT22;11359;45.802;13.530;2022-07-12T07:09:47;25.30;40.90
22383;DHT22;11359;45.802;13.530;2022-07-12T07:12:13;25.30;40.90
22383;DHT22;11359;45.802;13.530;2022-07-12T07:14:38;25.40;40.90
22383;DHT22;11359;45.802;13.530;2022-07-12T07:17:04;25.40;40.90
22383;DHT22;11359;45.802;13.530;2022-07-12T07:19:30;25.40;40.90
22383;DHT22;11359;45.802;13.530;2022-07-12T07:21:56;25.40;40.90
22383;DHT22;11359;45.802;13.530;2022-07-12T07:24:22;25.50;40.90
22383;DHT22;11359;45.802;13.530;2022-07-12T07:26:49;25.50;40.90
22383;DHT22;11359;45.802;13.530;2022-07-12T07:29:15;25.60;41.00
22383;DHT22;11359;45.802;13.530;2022-07-12T07:31:59;25.60;40.90
22383;DHT22;11359;45.802;13.530;2022-07-12T07:34:25;25.60;40.90
22383;DHT22;11359;45.802;13.530;2022-07-12T07:36:51;25.70;41.00
22383;DHT22;11359;45.802;13.530;2022-07-12T07:39:17;25.70;40.90
22383;DHT22;11359;45.802;13.530;2022-07-12T07:41:43;25.70;40.80
22383;DHT22;11359;45.802;13.530;2022-07-12T07:44:09;25.80;40.90
22383;DHT22;11359;45.802;13.530;2022-07-12T07:46:34;25.80;40.80
22383;DHT22;11359;45.802;13.530;2022-07-12T07:49:00;25.90;40.70
22383;DHT22;11359;45.802;13.530;2022-07-12T07:51:26;25.90;40.60
22383;DHT22;11359;45.802;13.530;2022-07-12T07:53:52;25.90;40.60
22383;DHT22;11359;45.802;13.530;2022-07-12T07:56:18;26.00;40.50
22383;DHT22;11359;45.802;13.530;2022-07-12T07:58:43;26.00;40.40
22383;DHT22;11359;45.802;13.530;2022-07-12T08:01:09;26.10;40.40
22383;DHT22;11359;45.802;13.530;2022-07-12T08:03:35;26.10;40.20
22383;DHT22;11359;45.802;13.530;2022-07-12T08:06:00;26.20;40.20
22383;DHT22;11359;45.802;13.530;2022-07-12T08:08:29;26.20;40.10
22383;DHT22;11359;45.802;13.530;2022-07-12T08:10:56;26.20;40.00
22383;DHT22;11359;45.802;13.530;2022-07-12T08:13:22;26.20;39.80
22383;DHT22;11359;45.802;13.530;2022-07-12T08:15:48;26.20;39.70
22383;DHT22;11359;45.802;13.530;2022-07-12T08:18:13;26.30;39.70
22383;DHT22;11359;45.802;13.530;2022-07-12T08:20:39;26.30;39.60
22383;DHT22;11359;45.802;13.530;2022-07-12T08:23:05;26.30;39.60
22383;DHT22;11359;45.802;13.530;2022-07-12T08:25:31;26.30;39.60
22383;DHT22;11359;45.802;13.530;2022-07-12T08:27:58;26.40;39.60
22383;DHT22;11359;45.802;13.530;2022-07-12T08:30:24;26.40;39.60
22383;DHT22;11359;45.802;13.530;2022-07-12T08:32:49;26.40;39.50
22383;DHT22;11359;45.802;13.530;2022-07-12T08:35:15;26.50;39.50
22383;DHT22;11359;45.802;13.530;2022-07-12T08:37:42;26.50;39.50
22383;DHT22;11359;45.802;13.530;2022-07-12T08:40:08;26.50;39.50
22383;DHT22;11359;45.802;13.530;2022-07-12T08:42:35;26.50;39.50
22383;DHT22;11359;45.802;13.530;2022-07-12T08:45:00;26.50;39.50
22383;DHT22;11359;45.802;13.530;2022-07-12T08:47:26;26.60;39.60
22383;DHT22;11359;45.802;13.530;2022-07-12T08:50:19;26.60;39.60
22383;DHT22;11359;45.802;13.530;2022-07-12T08:52:50;26.70;39.70
22383;DHT22;11359;45.802;13.530;2022-07-12T08:57:45;26.70;39.70
22383;DHT22;11359;45.802;13.530;2022-07-12T09:00:12;26.70;39.70
22383;DHT22;11359;45.802;13.530;2022-07-12T09:05:28;26.80;39.80
22383;DHT22;11359;45.802;13.530;2022-07-12T09:08:08;26.80;39.70
22383;DHT22;11359;45.802;13.530;2022-07-12T09:10:51;26.90;39.70
22383;DHT22;11359;45.802;13.530;2022-07-12T09:13:18;26.90;39.60
22383;DHT22;11359;45.802;13.530;2022-07-12T09:15:44;26.90;39.30
22383;DHT22;11359;45.802;13.530;2022-07-12T09:18:12;26.90;39.30
22383;DHT22;11359;45.802;13.530;2022-07-12T09:20:50;26.90;39.30
22383;DHT22;11359;45.802;13.530;2022-07-12T09:23:16;26.90;39.20
22383;DHT22;11359;45.802;13.530;2022-07-12T09:25:47;27.00;39.10
22383;DHT22;11359;45.802;13.530;2022-07-12T09:28:13;27.00;39.00
22383;DHT22;11359;45.802;13.530;2022-07-12T09:30:50;27.00;39.00
22383;DHT22;11359;45.802;13.530;2022-07-12T09:33:19;27.10;39.10
22383;DHT22;11359;45.802;13.530;2022-07-12T09:36:05;27.10;38.90
22383;DHT22;11359;45.802;13.530;2022-07-12T09:38:54;27.10;38.80
22383;DHT22;11359;45.802;13.530;2022-07-12T09:41:26;27.20;38.80
22383;DHT22;11359;45.802;13.530;2022-07-12T09:43:53;27.20;38.80
22383;DHT22;11359;45.802;13.530;2022-07-12T09:46:19;27.20;38.80
22383;DHT22;11359;45.802;13.530;2022-07-12T09:48:45;27.20;38.80
22383;DHT22;11359;45.802;13.530;2022-07-12T09:51:17;27.20;38.70
22383;DHT22;11359;45.802;13.530;2022-07-12T09:53:47;27.30;38.80
22383;DHT22;11359;45.802;13.530;2022-07-12T09:56:15;27.30;38.90
22383;DHT22;11359;45.802;13.530;2022-07-12T09:58:54;27.30;39.10
22383;DHT22;11359;45.802;13.530;2022-07-12T10:01:21;27.30;39.30
22383;DHT22;11359;45.802;13.530;2022-07-12T10:03:47;27.30;39.50
22383;DHT22;11359;45.802;13.530;2022-07-12T10:06:16;27.40;39.60
22383;DHT22;11359;45.802;13.530;2022-07-12T10:08:46;27.40;39.60
22383;DHT22;11359;45.802;13.530;2022-07-12T10:11:12;27.40;39.80
22383;DHT22;11359;45.802;13.530;2022-07-12T10:13:39;27.40;40.00
22383;DHT22;11359;45.802;13.530;2022-07-12T10:16:05;27.40;40.00
22383;DHT22;11359;45.802;13.530;2022-07-12T10:18:34;27.40;40.00
22383;DHT22;11359;45.802;13.530;2022-07-12T10:20:59;27.40;40.20
22383;DHT22;11359;45.802;13.530;2022-07-12T10:23:30;27.50;40.20
22383;DHT22;11359;45.802;13.530;2022-07-12T10:25:56;27.50;40.40
22383;DHT22;11359;45.802;13.530;2022-07-12T10:28:22;27.50;40.30
22383;DHT22;11359;45.802;13.530;2022-07-12T10:30:49;27.50;40.40
22383;DHT22;11359;45.802;13.530;2022-07-12T10:33:22;27.50;40.40
22383;DHT22;11359;45.802;13.530;2022-07-12T10:38:27;27.50;40.40
22383;DHT22;11359;45.802;13.530;2022-07-12T10:40:53;27.60;40.50
22383;DHT22;11359;45.802;13.530;2022-07-12T10:43:21;27.60;40.60
22383;DHT22;11359;45.802;13.530;2022-07-12T10:45:49;27.60;40.60
22383;DHT22;11359;45.802;13.530;2022-07-12T10:58:34;27.70;40.90
22383;DHT22;11359;45.802;13.530;2022-07-12T11:01:02;27.80;40.80
22383;DHT22;11359;45.802;13.530;2022-07-12T11:03:36;27.80;40.70
22383;DHT22;11359;45.802;13.530;2022-07-12T11:06:03;27.80;40.60
22383;DHT22;11359;45.802;13.530;2022-07-12T11:08:30;27.90;40.50
22383;DHT22;11359;45.802;13.530;2022-07-12T11:10:58;27.90;40.40
22383;DHT22;11359;45.802;13.530;2022-07-12T11:13:25;27.90;40.10
22383;DHT22;11359;45.802;13.530;2022-07-12T11:16:00;27.90;40.10
22383;DHT22;11359;45.802;13.530;2022-07-12T11:18:33;27.90;40.00
22383;DHT22;11359;45.802;13.530;2022-07-12T11:21:00;27.90;39.90
22383;DHT22;11359;45.802;13.530;2022-07-12T11:23:27;28.00;40.00
22383;DHT22;11359;45.802;13.530;2022-07-12T11:25:57;28.00;39.30
22383;DHT22;11359;45.802;13.530;2022-07-12T11:28:24;28.00;39.50
22383;DHT22;11359;45.802;13.530;2022-07-12T11:30:51;28.00;39.70
22383;DHT22;11359;45.802;13.530;2022-07-12T11:33:17;28.00;40.40
22383;DHT22;11359;45.802;13.530;2022-07-12T11:35:44;28.00;39.80
22383;DHT22;11359;45.802;13.530;2022-07-12T11:38:13;28.00;39.90
22383;DHT22;11359;45.802;13.530;2022-07-12T11:40:39;28.00;39.90
22383;DHT22;11359;45.802;13.530;2022-07-12T11:43:06;28.00;40.00
22383;DHT22;11359;45.802;13.530;2022-07-12T11:45:33;28.00;40.00
22383;DHT22;11359;45.802;13.530;2022-07-12T11:48:03;28.00;40.00
22383;DHT22;11359;45.802;13.530;2022-07-12T11:50:30;28.10;40.10
22383;DHT22;11359;45.802;13.530;2022-07-12T11:52:56;28.10;40.00
22383;DHT22;11359;45.802;13.530;2022-07-12T11:55:22;28.10;40.10
22383;DHT22;11359;45.802;13.530;2022-07-12T11:57:48;28.20;40.20
22383;DHT22;11359;45.802;13.530;2022-07-12T12:00:19;28.20;40.20
22383;DHT22;11359;45.802;13.530;2022-07-12T12:02:46;28.20;40.20
22383;DHT22;11359;45.802;13.530;2022-07-12T12:05:12;28.20;40.00
22383;DHT22;11359;45.802;13.530;2022-07-12T12:07:38;28.30;40.00
22383;DHT22;11359;45.802;13.530;2022-07-12T12:10:14;28.30;40.10
22383;DHT22;11359;45.802;13.530;2022-07-12T12:12:47;28.40;40.20
22383;DHT22;11359;45.802;13.530;2022-07-12T12:15:21;28.40;40.20
22383;DHT22;11359;45.802;13.530;2022-07-12T12:20:24;28.50;40.20
22383;DHT22;11359;45.802;13.530;2022-07-12T12:22:55;28.50;40.10
22383;DHT22;11359;45.802;13.530;2022-07-12T12:25:22;28.50;40.20
22383;DHT22;11359;45.802;13.530;2022-07-12T12:27:53;28.50;40.10
22383;DHT22;11359;45.802;13.530;2022-07-12T12:30:20;28.50;40.10
22383;DHT22;11359;45.802;13.530;2022-07-12T12:32:48;28.60;40.20
22383;DHT22;11359;45.802;13.530;2022-07-12T12:37:58;28.60;40.20
22383;DHT22;11359;45.802;13.530;2022-07-12T12:40:25;28.60;40.30
22383;DHT22;11359;45.802;13.530;2022-07-12T12:42:53;28.60;40.20
22383;DHT22;11359;45.802;13.530;2022-07-12T12:45:25;28.70;40.30
22383;DHT22;11359;45.802;13.530;2022-07-12T12:48:05;28.70;40.40
22383;DHT22;11359;45.802;13.530;2022-07-12T12:50:44;28.70;40.40
22383;DHT22;11359;45.802;13.530;2022-07-12T12:55:46;28.80;40.50
22383;DHT22;11359;45.802;13.530;2022-07-12T12:58:13;28.90;40.60
22383;DHT22;11359;45.802;13.530;2022-07-12T13:00:42;29.00;40.80
22383;DHT22;11359;45.802;13.530;2022-07-12T13:03:08;29.00;40.60
22383;DHT22;11359;45.802;13.530;2022-07-12T13:05:35;29.10;40.80
22383;DHT22;11359;45.802;13.530;2022-07-12T13:08:04;29.30;41.10
22383;DHT22;11359;45.802;13.530;2022-07-12T13:10:31;29.40;41.50
22383;DHT22;11359;45.802;13.530;2022-07-12T13:12:58;29.70;41.90
22383;DHT22;11359;45.802;13.530;2022-07-12T13:15:25;30.00;42.10
22383;DHT22;11359;45.802;13.530;2022-07-12T13:17:50;30.30;42.20
22383;DHT22;11359;45.802;13.530;2022-07-12T13:20:16;30.70;42.00
22383;DHT22;11359;45.802;13.530;2022-07-12T13:22:42;31.10;41.90
22383;DHT22;11359;45.802;13.530;2022-07-12T13:25:10;31.50;41.70
22383;DHT22;11359;45.802;13.530;2022-07-12T13:27:37;31.80;41.00
22383;DHT22;11359;45.802;13.530;2022-07-12T13:30:03;32.20;40.70
22383;DHT22;11359;45.802;13.530;2022-07-12T13:32:31;32.50;40.40
22383;DHT22;11359;45.802;13.530;2022-07-12T13:34:57;32.80;39.70
22383;DHT22;11359;45.802;13.530;2022-07-12T13:37:23;33.00;38.90
22383;DHT22;11359;45.802;13.530;2022-07-12T13:39:48;33.20;38.80
22383;DHT22;11359;45.802;13.530;2022-07-12T13:42:33;33.40;38.70
22383;DHT22;11359;45.802;13.530;2022-07-12T13:44:58;33.60;38.20
22383;DHT22;11359;45.802;13.530;2022-07-12T13:47:24;33.70;37.90
22383;DHT22;11359;45.802;13.530;2022-07-12T13:49:51;33.90;37.30
22383;DHT22;11359;45.802;13.530;2022-07-12T13:52:17;34.00;37.20
22383;DHT22;11359;45.802;13.530;2022-07-12T13:54:45;34.10;37.20
22383;DHT22;11359;45.802;13.530;2022-07-12T13:57:11;34.30;37.30
22383;DHT22;11359;45.802;13.530;2022-07-12T13:59:38;34.40;37.40
22383;DHT22;11359;45.802;13.530;2022-07-12T14:02:04;34.60;37.50
22383;DHT22;11359;45.802;13.530;2022-07-12T14:04:30;34.70;36.80
22383;DHT22;11359;45.802;13.530;2022-07-12T14:06:57;34.90;36.70
22383;DHT22;11359;45.802;13.530;2022-07-12T14:09:23;35.00;36.40
22383;DHT22;11359;45.802;13.530;2022-07-12T14:11:49;35.10;36.40
22383;DHT22;11359;45.802;13.530;2022-07-12T14:14:15;35.30;36.30
22383;DHT22;11359;45.802;13.530;2022-07-12T14:16:41;35.40;36.10
22383;DHT22;11359;45.802;13.530;2022-07-12T14:19:07;35.50;36.10
22383;DHT22;11359;45.802;13.530;2022-07-12T14:21:33;35.70;36.20
22383;DHT22;11359;45.802;13.530;2022-07-12T14:23:58;35.80;36.00
22383;DHT22;11359;45.802;13.530;2022-07-12T14:26:29;35.90;35.90
22383;DHT22;11359;45.802;13.530;2022-07-12T14:28:55;36.10;35.50
22383;DHT22;11359;45.802;13.530;2022-07-12T14:31:21;36.20;35.20
22383;DHT22;11359;45.802;13.530;2022-07-12T14:33:46;36.30;34.70
22383;DHT22;11359;45.802;13.530;2022-07-12T14:36:12;36.40;34.50
22383;DHT22;11359;45.802;13.530;2022-07-12T14:38:38;36.50;34.30
22383;DHT22;11359;45.802;13.530;2022-07-12T14:41:04;36.50;34.20
22383;DHT22;11359;45.802;13.530;2022-07-12T14:43:29;36.60;34.50
22383;DHT22;11359;45.802;13.530;2022-07-12T14:45:56;36.70;34.70
22383;DHT22;11359;45.802;13.530;2022-07-12T14:48:22;36.70;34.40
22383;DHT22;11359;45.802;13.530;2022-07-12T14:50:47;36.90;34.40
22383;DHT22;11359;45.802;13.530;2022-07-12T14:53:13;37.00;34.40
22383;DHT22;11359;45.802;13.530;2022-07-12T14:55:39;37.10;34.20
22383;DHT22;11359;45.802;13.530;2022-07-12T14:58:06;37.20;34.10
22383;DHT22;11359;45.802;13.530;2022-07-12T15:00:35;37.30;34.20
22383;DHT22;11359;45.802;13.530;2022-07-12T15:03:01;37.50;34.10
22383;DHT22;11359;45.802;13.530;2022-07-12T15:05:27;37.60;33.90
22383;DHT22;11359;45.802;13.530;2022-07-12T15:07:53;37.70;33.30
22383;DHT22;11359;45.802;13.530;2022-07-12T15:10:19;37.80;33.20
22383;DHT22;11359;45.802;13.530;2022-07-12T15:12:45;37.80;33.20
22383;DHT22;11359;45.802;13.530;2022-07-12T15:15:12;37.90;33.50
22383;DHT22;11359;45.802;13.530;2022-07-12T15:17:38;38.00;33.50
22383;DHT22;11359;45.802;13.530;2022-07-12T15:20:04;38.20;33.00
22383;DHT22;11359;45.802;13.530;2022-07-12T15:22:30;38.20;33.00
22383;DHT22;11359;45.802;13.530;2022-07-12T15:24:56;38.40;33.10
22383;DHT22;11359;45.802;13.530;2022-07-12T15:27:22;38.50;33.10
22383;DHT22;11359;45.802;13.530;2022-07-12T15:29:49;38.50;33.00
22383;DHT22;11359;45.802;13.530;2022-07-12T15:32:16;38.60;32.70
22383;DHT22;11359;45.802;13.530;2022-07-12T15:34:42;38.70;32.60
22383;DHT22;11359;45.802;13.530;2022-07-12T15:37:08;38.80;32.10
22383;DHT22;11359;45.802;13.530;2022-07-12T15:39:33;38.80;32.00
22383;DHT22;11359;45.802;13.530;2022-07-12T15:42:02;38.90;32.00